Time;durP1;ratioP1;P1;durP2;ratioP2;P2;SDS_P1;SDS_P2;PMS_P1;PMS_P2;Temp;Humidity;BMP_temperature;BMP_pressure;BME280_temperature;BME280_humidity;BME280_pressure;Samples;Min_cycle;Max_cycle;Signal;HPM_P1;HPM_P2
2022/02/06 00:02:22;;;;;;;27.60;17.50;;;;;;;-2.23;78.82;97816.89;110036;1247;60487;-65
2022/02/06 00:04:52;;;;;;;24.60;13.40;;;;;;;-2.32;79.10;97818.72;110047;1247;73052;-65
2022/02/06 00:07:21;;;;;;;29.70;17.30;;;;;;;-2.34;77.63;97814.67;110328;1247;68552;-65
2022/02/06 00:09:50;;;;;;;34.80;22.00;;;;;;;-2.35;77.31;97817.23;110020;1246;70105;-65
2022/02/06 00:12:40;;;;;;;52.20;29.70;;;;;;;-2.39;78.08;97828.22;110236;1244;60544;-65
2022/02/06 00:15:10;;;;;;;46.70;27.20;;;;;;;-2.49;78.74;97829.38;110247;1245;60601;-65
2022/02/06 00:17:40;;;;;;;34.80;23.20;;;;;;;-2.60;78.85;97826.97;110069;1247;73028;-65
2022/02/06 00:20:10;;;;;;;50.30;31.30;;;;;;;-2.70;78.64;97825.07;110336;1247;69348;-65
2022/02/06 00:22:44;;;;;;;38.30;24.80;;;;;;;-2.85;81.58;97831.73;110342;1245;67756;-67
2022/02/06 00:33:13;;;;;;;34.40;20.50;;;;;;;-3.17;81.58;97830.77;110440;1245;69224;-67
2022/02/06 00:38:34;;;;;;;35.10;22.60;;;;;;;-3.26;81.13;97837.02;110257;1247;60535;-67
2022/02/06 00:41:14;;;;;;;45.90;26.60;;;;;;;-3.34;81.89;97834.89;110423;1246;60482;-68
2022/02/06 00:43:44;;;;;;;42.10;23.80;;;;;;;-3.41;83.37;97830.35;110410;1247;72688;-68
2022/02/06 00:46:15;;;;;;;39.90;24.00;;;;;;;-3.46;83.50;97831.60;110523;1244;68832;-66
2022/02/06 00:48:53;;;;;;;43.20;25.60;;;;;;;-3.51;83.91;97833.70;110262;1245;68663;-65
2022/02/06 00:54:11;;;;;;;23.00;13.40;;;;;;;-3.59;83.05;97833.27;110113;1244;60852;-67
2022/02/06 00:56:41;;;;;;;20.00;12.90;;;;;;;-3.63;81.83;97825.64;110564;1244;72253;-66
2022/02/06 00:59:10;;;;;;;27.80;17.00;;;;;;;-3.62;80.32;97817.61;110374;1244;68573;-65
2022/02/06 01:01:42;;;;;;;25.10;17.30;;;;;;;-3.62;80.16;97820.69;110044;1247;70108;-66
2022/02/06 01:04:13;;;;;;;30.10;18.20;;;;;;;-3.66;81.59;97823.11;110378;1247;60465;-66
2022/02/06 01:06:43;;;;;;;29.90;19.50;;;;;;;-3.71;82.24;97826.39;110057;1247;60850;-66
2022/02/06 01:09:12;;;;;;;36.50;21.40;;;;;;;-3.75;82.34;97834.79;109900;1248;72422;-66
2022/02/06 01:11:42;;;;;;;41.20;24.80;;;;;;;-3.84;84.04;97833.50;110400;1247;67806;-66
2022/02/06 01:14:28;;;;;;;34.20;20.30;;;;;;;-3.89;84.63;97833.71;110263;1246;69517;-66
2022/02/06 01:17:20;;;;;;;33.10;18.90;;;;;;;-3.93;83.33;97832.73;109993;1247;60533;-66
2022/02/06 01:20:04;;;;;;;35.30;21.90;;;;;;;-3.96;82.58;97832.75;110483;1244;60497;-66
2022/02/06 01:22:36;;;;;;;33.60;20.10;;;;;;;-4.01;83.64;97828.38;110347;1246;72351;-66
2022/02/06 01:25:12;;;;;;;28.10;17.20;;;;;;;-4.05;82.97;97825.51;110390;1247;68599;-66
2022/02/06 01:27:53;;;;;;;37.50;22.50;;;;;;;-4.08;82.15;97822.64;110458;1247;69977;-66
2022/02/06 01:30:33;;;;;;;25.60;16.90;;;;;;;-4.10;82.39;97817.55;110346;1244;60474;-65
2022/02/06 01:33:11;;;;;;;47.70;27.80;;;;;;;-4.08;81.82;97817.70;110063;1247;60430;-65
2022/02/06 01:35:58;;;;;;;39.50;24.60;;;;;;;-4.07;84.39;97815.98;110085;1247;71935;-65
2022/02/06 01:38:35;;;;;;;30.90;20.20;;;;;;;-4.04;83.21;97811.88;110010;1248;68655;-65
2022/02/06 01:41:17;;;;;;;48.70;26.60;;;;;;;-3.98;82.71;97807.92;110317;1247;68961;-65
2022/02/06 01:44:14;;;;;;;43.70;24.00;;;;;;;-3.95;83.99;97810.78;110102;1247;60433;-65
2022/02/06 01:46:52;;;;;;;;;;;;;;;-3.91;83.93;97812.12;110257;1247;60478;-65
2022/02/06 02:00:57;;;;;;;39.40;22.40;;;;;;;-3.58;83.25;97821.66;110108;1248;60484;-65
2022/02/06 02:03:42;;;;;;;38.40;23.40;;;;;;;-3.55;83.21;97830.68;110001;1248;72780;-65
2022/02/06 02:06:50;;;;;;;29.90;17.30;;;;;;;-3.57;81.77;97825.41;109950;1248;68278;-65
2022/02/06 02:17:57;;;;;;;40.30;23.30;;;;;;;-3.44;81.08;97837.04;110093;1247;72354;-66
2022/02/06 02:31:50;;;;;;;50.10;26.20;;;;;;;-3.39;82.53;97831.70;110088;1247;71626;-65
2022/02/06 02:45:38;;;;;;;29.90;18.70;;;;;;;-3.49;80.76;97821.24;110103;1247;72565;-65
2022/02/06 02:48:08;;;;;;;46.30;26.60;;;;;;;-3.53;80.47;97819.58;110079;1247;68698;-65
2022/02/06 02:50:43;;;;;;;31.50;20.30;;;;;;;-3.65;81.99;97822.25;110107;1248;67754;-65
2022/02/06 02:53:25;;;;;;;37.10;19.90;;;;;;;-3.72;81.50;97822.32;109957;1247;60518;-65
2022/02/06 02:58:51;;;;;;;37.90;20.90;;;;;;;-3.92;83.20;97821.14;110168;1247;72350;-65
2022/02/06 03:01:34;;;;;;;30.90;18.10;;;;;;;-3.99;82.34;97824.95;110120;1247;67664;-65
2022/02/06 03:04:05;;;;;;;36.70;21.20;;;;;;;-4.08;82.24;97824.17;110396;1246;69087;-65
2022/02/06 03:06:36;;;;;;;25.30;16.50;;;;;;;-4.17;82.41;97828.66;110395;1247;60545;-66
2022/02/06 03:09:06;;;;;;;27.00;16.60;;;;;;;-4.24;81.56;97825.98;110301;1247;60935;-65
2022/02/06 03:11:36;;;;;;;;;;;;;;;-4.31;81.80;97822.98;110288;1247;72442;-65
2022/02/06 03:14:11;;;;;;;41.00;22.50;;;;;;;-4.38;83.24;97824.73;110273;1247;68637;-65
2022/02/06 03:17:01;;;;;;;44.90;26.50;;;;;;;-4.55;85.66;97830.98;109996;1247;69444;-66
2022/02/06 03:19:40;;;;;;;55.90;28.70;;;;;;;-4.62;85.36;97827.79;110066;1247;60544;-66
2022/02/06 03:22:19;;;;;;;47.90;28.10;;;;;;;-4.74;85.50;97834.65;110240;1247;60390;-66
2022/02/06 03:24:55;;;;;;;51.70;29.60;;;;;;;-4.81;85.74;97840.98;110338;1245;71592;-65
2022/02/06 03:27:26;;;;;;;55.90;32.10;;;;;;;-4.84;85.27;97842.19;110192;1245;68374;-65
2022/02/06 03:29:56;;;;;;;39.70;24.60;;;;;;;-4.87;85.38;97842.54;110240;1244;69226;-65
2022/02/06 03:32:26;;;;;;;34.20;20.20;;;;;;;-4.87;84.72;97842.37;110326;1247;60566;-66
2022/02/06 03:34:56;;;;;;;27.50;17.90;;;;;;;-4.84;84.05;97848.14;110306;1247;60546;-66
2022/02/06 03:37:26;;;;;;;48.50;27.80;;;;;;;-4.82;84.47;97846.75;110117;1248;72346;-66
2022/02/06 03:39:59;;;;;;;;;;;;;;;-4.86;86.00;97845.60;110086;1248;67826;-65
2022/02/06 03:42:34;;;;;;;31.20;18.50;;;;;;;-4.88;85.01;97844.75;110150;1247;69400;-66
2022/02/06 03:45:08;;;;;;;31.60;18.30;;;;;;;-4.88;83.56;97841.70;110301;1244;60552;-66
2022/02/06 03:47:52;;;;;;;31.70;18.20;;;;;;;-4.87;83.05;97838.97;110207;1244;60541;-65
2022/02/06 03:50:32;;;;;;;25.30;14.70;;;;;;;-4.86;82.98;97834.71;110118;1247;72191;-66
2022/02/06 03:53:02;;;;;;;41.80;25.40;;;;;;;-4.83;82.78;97829.09;110150;1247;68711;-65
2022/02/06 03:55:33;;;;;;;36.30;18.70;;;;;;;-4.85;83.71;97828.25;110437;1247;68593;-66
2022/02/06 03:58:03;;;;;;;28.10;18.50;;;;;;;-4.88;83.13;97827.41;110386;1247;60548;-66
2022/02/06 04:00:32;;;;;;;30.20;19.20;;;;;;;-4.92;83.12;97825.91;110245;1247;60459;-66
2022/02/06 04:03:03;;;;;;;35.50;20.90;;;;;;;-4.96;83.44;97824.91;110237;1247;71696;-66
2022/02/06 04:05:33;;;;;;;29.30;18.40;;;;;;;-4.98;83.40;97828.15;110242;1247;68197;-66
2022/02/06 04:08:05;;;;;;;34.40;19.30;;;;;;;-5.01;82.89;97826.28;110284;1247;68483;-65
2022/02/06 04:10:42;;;;;;;28.30;18.60;;;;;;;-5.03;83.06;97828.00;110492;1244;60545;-65
2022/02/06 04:13:19;;;;;;;28.70;18.90;;;;;;;-5.07;83.02;97830.73;110415;1247;60425;-65
2022/02/06 04:15:57;;;;;;;28.30;16.30;;;;;;;-5.11;82.86;97830.41;110122;1247;72246;-65
2022/02/06 04:18:41;;;;;;;32.80;20.20;;;;;;;-5.14;83.32;97833.13;110258;1247;66840;-65
2022/02/06 04:21:11;;;;;;;45.60;26.50;;;;;;;-5.17;84.05;97836.39;109992;1247;68620;-65
2022/02/06 04:23:41;;;;;;;49.30;25.30;;;;;;;-5.17;86.43;97833.84;110285;1247;60844;-65
2022/02/06 04:26:11;;;;;;;52.90;31.40;;;;;;;-5.18;86.89;97836.20;110394;1247;60509;-65
2022/02/06 04:28:41;;;;;;;29.30;19.10;;;;;;;-5.18;86.78;97837.90;110393;1246;72332;-65
2022/02/06 04:31:11;;;;;;;43.10;24.20;;;;;;;-5.15;84.61;97842.66;109971;1245;68382;-65
2022/02/06 04:33:40;;;;;;;49.50;26.70;;;;;;;-5.15;83.93;97842.65;110263;1244;69346;-65
2022/02/06 04:36:13;;;;;;;37.40;22.10;;;;;;;-5.14;85.60;97847.91;110328;1245;60554;-65
2022/02/06 04:39:05;;;;;;;44.80;26.20;;;;;;;-5.15;84.91;97851.84;110350;1247;60467;-65
2022/02/06 04:55:50;;;;;;;32.70;17.50;;;;;;;-5.27;84.46;97859.36;110219;1247;71600;-65
2022/02/06 05:13:00;;;;;;;56.00;29.60;;;;;;;-5.30;84.08;97861.91;110104;1248;67633;-64
2022/02/06 05:15:27;;;;;;;60.20;33.10;;;;;;;-5.42;84.64;97860.41;110260;1247;68648;-65
2022/02/06 05:23:39;;;;;;;45.90;25.90;;;;;;;-5.67;84.67;97842.95;110263;1247;70767;-64
2022/02/06 05:29:05;;;;;;;33.00;19.50;;;;;;;-5.76;85.07;97842.65;110251;1244;69465;-66
2022/02/06 05:31:44;;;;;;;25.20;14.70;;;;;;;-5.81;84.77;97843.16;110405;1244;60494;-65
2022/02/06 05:34:14;;;;;;;30.70;18.10;;;;;;;-5.83;84.02;97845.70;110114;1247;60521;-67
2022/02/06 05:36:43;;;;;;;46.00;26.70;;;;;;;-5.88;84.46;97844.69;110591;1245;73118;-64
2022/02/06 05:39:14;;;;;;;25.40;17.00;;;;;;;-5.91;84.49;97841.48;110350;1247;67754;-65
2022/02/06 05:41:43;;;;;;;46.20;26.00;;;;;;;-5.94;84.56;97839.98;110136;1247;68759;-65
2022/02/06 05:44:12;;;;;;;51.60;27.80;;;;;;;-5.97;84.80;97838.10;110397;1245;60554;-63
2022/02/06 05:46:42;;;;;;;49.40;28.50;;;;;;;-6.00;84.52;97838.97;110368;1247;60479;-65
2022/02/06 05:49:11;;;;;;;39.20;24.10;;;;;;;-6.01;84.57;97847.29;110077;1247;72166;-66
2022/02/06 05:51:41;;;;;;;38.00;22.30;;;;;;;-6.00;84.32;97849.15;110439;1245;69232;-66
2022/02/06 05:54:11;;;;;;;56.10;33.00;;;;;;;-6.00;84.50;97852.38;110327;1245;69495;-66
2022/02/06 05:56:40;;;;;;;54.10;29.10;;;;;;;-6.03;85.73;97853.05;110380;1244;60529;-65
2022/02/06 05:59:10;;;;;;;45.30;25.40;;;;;;;-6.03;85.58;97851.52;110162;1247;60545;-65
2022/02/06 06:01:39;;;;;;;33.80;22.20;;;;;;;-6.03;85.24;97855.76;110034;1245;72852;-67
2022/02/06 06:04:08;;;;;;;58.00;29.40;;;;;;;-6.02;85.33;97853.39;110280;1245;67790;-66
2022/02/06 06:06:37;;;;;;;56.70;31.00;;;;;;;-6.01;85.84;97860.01;110608;1244;68650;-65
2022/02/06 06:09:07;;;;;;;59.30;31.30;;;;;;;-5.99;87.84;97862.89;110186;1246;60522;-65
2022/02/06 06:11:36;;;;;;;57.50;30.40;;;;;;;-5.94;88.58;97867.30;110085;1247;60460;-66
2022/02/06 06:14:05;;;;;;;61.70;31.20;;;;;;;-5.87;89.04;97866.77;109947;1247;73021;-67
2022/02/06 06:16:35;;;;;;;48.30;27.50;;;;;;;-5.83;88.98;97866.08;110526;1245;67599;-67
2022/02/06 06:19:05;;;;;;;57.00;29.10;;;;;;;-5.78;88.90;97862.84;110567;1244;69133;-65
2022/02/06 06:21:39;;;;;;;37.60;21.90;;;;;;;-5.72;88.94;97868.95;110391;1244;60467;-65
2022/02/06 06:24:08;;;;;;;53.10;27.90;;;;;;;-5.65;88.82;97874.72;110417;1244;60515;-65
2022/02/06 06:26:39;;;;;;;47.50;29.40;;;;;;;-5.58;88.50;97877.93;110375;1244;73325;-65
2022/02/06 06:29:09;;;;;;;33.10;19.00;;;;;;;-5.51;88.09;97879.12;110245;1244;68733;-65
2022/02/06 06:31:37;;;;;;;29.40;14.90;;;;;;;-5.42;87.48;97884.20;110177;1244;69842;-65
2022/02/06 06:34:07;;;;;;;31.90;20.00;;;;;;;-5.32;86.95;97887.06;110025;1244;60494;-65
2022/02/06 06:36:36;;;;;;;28.70;16.20;;;;;;;-5.20;86.96;97885.84;110408;1247;60466;-67
2022/02/06 06:39:06;;;;;;;29.10;16.50;;;;;;;-5.07;86.17;97884.44;110295;1245;72308;-67
2022/02/06 06:41:55;;;;;;;35.10;19.70;;;;;;;-4.93;85.20;97888.30;110449;1244;69073;-67
2022/02/06 06:44:24;;;;;;;36.20;22.60;;;;;;;-4.79;84.56;97889.10;110419;1244;70003;-67
2022/02/06 06:46:53;;;;;;;39.30;22.40;;;;;;;-4.66;84.30;97892.11;110459;1246;60481;-67
2022/02/06 06:49:22;;;;;;;36.70;22.10;;;;;;;-4.54;84.32;97892.55;110253;1247;60469;-65
2022/02/06 06:51:53;;;;;;;54.70;31.20;;;;;;;-4.45;84.55;97892.67;110355;1247;72372;-65
2022/02/06 06:54:32;;;;;;;54.90;32.10;;;;;;;-4.32;84.60;97886.98;110236;1245;68661;-67
2022/02/06 06:57:16;;;;;;;63.70;37.90;;;;;;;-4.09;84.72;97887.16;110441;1247;69429;-65
2022/02/06 07:02:34;;;;;;;58.30;36.40;;;;;;;-3.16;83.60;97895.38;109555;1244;557409;-65
2022/02/06 07:05:05;;;;;;;82.50;48.00;;;;;;;-2.62;83.56;97890.48;110099;1247;72901;-65
2022/02/06 07:07:34;;;;;;;;;;;;;;;-2.02;81.62;97895.27;110378;1244;68582;-65
2022/02/06 07:10:06;;;;;;;106.40;63.50;;;;;;;-1.48;77.60;97892.87;110315;1244;69357;-66
2022/02/06 07:12:35;;;;;;;99.50;59.30;;;;;;;-0.86;78.24;97896.01;110348;1247;60516;-66
2022/02/06 07:15:05;;;;;;;85.90;50.20;;;;;;;-0.23;77.28;97890.45;110135;1247;60550;-66
2022/02/06 07:17:34;;;;;;;81.40;49.90;;;;;;;0.45;77.16;97889.02;110302;1245;72871;-67
2022/02/06 07:20:04;;;;;;;126.70;84.50;;;;;;;1.13;76.12;97887.25;110450;1244;68014;-65
2022/02/06 07:22:37;;;;;;;101.00;69.30;;;;;;;1.81;75.33;97885.08;110194;1247;70052;-67
2022/02/06 07:25:08;;;;;;;96.10;66.40;;;;;;;2.53;73.78;97879.36;110346;1247;60485;-67
2022/02/06 07:27:41;;;;;;;86.80;56.00;;;;;;;3.18;73.39;97881.79;110361;1247;60648;-67
2022/02/06 07:30:11;;;;;;;77.70;50.20;;;;;;;3.84;73.03;97886.25;110474;1244;72235;-67
2022/02/06 07:32:40;;;;;;;48.80;32.00;;;;;;;4.36;67.20;97886.80;110194;1247;68700;-67
2022/02/06 07:35:11;;;;;;;49.00;35.60;;;;;;;4.81;64.07;97893.41;110497;1244;68469;-66
2022/02/06 07:37:54;;;;;;;34.80;24.40;;;;;;;4.76;53.15;97893.95;110516;1244;60616;-67
2022/02/06 07:40:25;;;;;;;43.70;28.70;;;;;;;4.52;52.12;97893.58;110519;1244;60489;-67
2022/02/06 07:42:54;;;;;;;43.20;31.30;;;;;;;4.60;52.25;97896.16;110444;1245;72158;-68
2022/02/06 07:45:26;;;;;;;33.10;24.20;;;;;;;4.40;51.70;97898.38;110518;1244;68704;-68
2022/02/06 07:47:56;;;;;;;35.90;25.10;;;;;;;4.32;52.21;97892.84;110426;1245;69825;-67
2022/02/06 07:50:31;;;;;;;36.90;27.20;;;;;;;4.34;51.58;97892.06;110243;1247;60566;-68
2022/02/06 07:53:09;;;;;;;31.70;24.70;;;;;;;4.09;52.03;97893.90;110262;1245;60522;-68
2022/02/06 07:55:43;;;;;;;31.10;25.20;;;;;;;3.67;52.42;97890.67;110402;1245;71774;-68
2022/02/06 07:58:24;;;;;;;47.80;28.80;;;;;;;3.37;53.34;97888.86;110161;1247;67455;-68
2022/02/06 08:00:53;;;;;;;40.60;28.10;;;;;;;3.19;53.87;97891.75;110454;1245;69363;-67
2022/02/06 08:03:24;;;;;;;34.30;24.10;;;;;;;3.73;53.53;97889.43;110475;1244;60513;-67
2022/02/06 08:05:53;;;;;;;28.40;20.80;;;;;;;3.84;53.12;97889.16;110060;1245;60502;-67
2022/02/06 08:08:22;;;;;;;27.40;19.90;;;;;;;4.03;51.98;97896.02;110510;1244;72260;-68
2022/02/06 08:10:58;;;;;;;25.30;18.60;;;;;;;3.35;53.80;97889.63;110456;1245;68983;-67
2022/02/06 08:13:39;;;;;;;21.70;15.10;;;;;;;3.07;53.80;97886.85;110441;1245;68752;-66
2022/02/06 08:16:09;;;;;;;22.10;15.50;;;;;;;3.15;53.94;97881.56;110538;1244;60573;-67
2022/02/06 08:18:41;;;;;;;23.80;15.50;;;;;;;3.34;53.18;97880.88;110555;1244;60396;-67
2022/02/06 08:21:12;;;;;;;17.40;11.90;;;;;;;4.25;51.18;97881.71;110574;1244;72325;-68
2022/02/06 08:23:46;;;;;;;20.60;14.60;;;;;;;4.91;49.13;97887.98;110194;1245;68651;-67
2022/02/06 08:26:16;;;;;;;18.10;13.60;;;;;;;4.24;49.99;97891.55;110504;1244;68451;-67
2022/02/06 08:29:02;;;;;;;16.30;11.20;;;;;;;3.52;51.31;97890.89;110378;1244;60492;-69
2022/02/06 08:31:32;;;;;;;18.50;13.10;;;;;;;3.99;50.23;97889.48;110212;1247;60557;-67
2022/02/06 08:34:00;;;;;;;17.50;13.70;;;;;;;3.58;51.15;97883.81;110496;1247;71592;-67
2022/02/06 08:36:30;;;;;;;24.10;14.30;;;;;;;4.15;50.63;97887.13;110330;1247;68371;-67
2022/02/06 08:39:06;;;;;;;14.20;9.60;;;;;;;4.53;49.16;97880.40;110459;1244;69428;-69
2022/02/06 08:41:36;;;;;;;16.90;12.90;;;;;;;4.98;47.85;97880.08;110412;1244;60501;-66
2022/02/06 08:44:05;;;;;;;16.80;11.40;;;;;;;5.19;47.08;97880.41;110269;1246;60594;-67
2022/02/06 08:46:34;;;;;;;25.00;16.70;;;;;;;4.99;46.91;97881.91;110191;1245;73056;-66
2022/02/06 08:49:03;;;;;;;18.40;13.30;;;;;;;4.44;48.10;97889.58;110341;1245;68074;-67
2022/02/06 08:51:32;;;;;;;12.20;9.40;;;;;;;5.21;47.42;97883.02;110321;1244;68839;-67
2022/02/06 08:54:01;;;;;;;17.60;13.70;;;;;;;6.00;44.93;97882.27;110456;1245;60614;-67
2022/02/06 08:56:31;;;;;;;12.00;9.10;;;;;;;5.55;45.25;97884.47;110450;1244;60517;-67
2022/02/06 08:59:00;;;;;;;11.70;8.60;;;;;;;5.91;44.67;97878.70;110514;1244;72737;-66
2022/02/06 09:01:29;;;;;;;13.50;9.10;;;;;;;6.76;43.84;97877.34;110329;1246;68941;-68
2022/02/06 09:03:59;;;;;;;13.50;9.50;;;;;;;7.84;42.02;97875.39;110477;1244;69232;-67
2022/02/06 09:06:28;;;;;;;15.20;10.80;;;;;;;8.31;40.08;97879.77;110505;1247;60569;-66
2022/02/06 09:09:00;;;;;;;16.00;12.40;;;;;;;7.78;40.16;97873.48;110352;1244;60564;-66
2022/02/06 09:11:29;;;;;;;20.80;15.80;;;;;;;6.83;41.28;97867.27;110474;1244;72981;-69
2022/02/06 09:13:59;;;;;;;16.00;13.00;;;;;;;5.71;44.56;97875.27;110478;1245;68629;-68
2022/02/06 09:16:28;;;;;;;18.50;14.40;;;;;;;4.72;46.57;97871.69;110523;1244;68952;-68
2022/02/06 09:18:56;;;;;;;18.30;13.70;;;;;;;4.30;48.22;97870.50;110524;1244;60580;-68
2022/02/06 09:21:26;;;;;;;17.20;12.80;;;;;;;4.16;48.79;97874.68;110511;1244;60717;-68
2022/02/06 09:23:55;;;;;;;17.40;14.30;;;;;;;4.58;48.10;97872.09;110094;1247;72955;-68
2022/02/06 09:26:25;;;;;;;20.60;15.30;;;;;;;4.43;48.76;97869.77;110454;1244;68546;-69
2022/02/06 09:28:54;;;;;;;18.10;13.40;;;;;;;4.85;48.21;97863.17;110484;1244;69677;-69
2022/02/06 09:31:26;;;;;;;16.40;11.90;;;;;;;5.03;46.93;97866.94;110528;1245;60507;-69
2022/02/06 09:36:25;;;;;;;15.50;11.00;;;;;;;5.75;45.42;97848.45;110437;1244;72753;-68
2022/02/06 09:38:54;;;;;;;15.80;13.50;;;;;;;6.05;44.18;97847.42;110439;1244;68395;-68
2022/02/06 09:41:23;;;;;;;17.30;13.20;;;;;;;6.44;43.58;97839.31;110380;1247;69863;-67
2022/02/06 09:43:54;;;;;;;14.10;11.10;;;;;;;7.24;42.37;97829.15;110357;1244;60553;-67
2022/02/06 09:46:45;;;;;;;13.20;11.00;;;;;;;7.49;40.72;97825.92;110375;1245;60477;-67
2022/02/06 09:49:14;;;;;;;14.30;9.50;;;;;;;5.93;43.85;97826.19;110519;1244;74121;-67
2022/02/06 09:51:44;;;;;;;13.60;10.50;;;;;;;5.90;44.17;97829.98;110380;1243;68170;-67
2022/02/06 09:54:23;;;;;;;11.40;8.70;;;;;;;6.62;43.55;97818.17;110274;1247;70056;-67
2022/02/06 09:56:56;;;;;;;14.00;9.50;;;;;;;7.46;41.18;97816.23;110417;1244;60494;-67
2022/02/06 09:59:30;;;;;;;10.60;7.60;;;;;;;6.97;42.15;97812.88;110437;1244;60420;-66
2022/02/06 10:01:59;;;;;;;11.80;8.70;;;;;;;6.18;43.26;97806.63;110520;1244;71420;-68
2022/02/06 10:04:30;;;;;;;9.30;7.90;;;;;;;6.40;43.22;97797.09;110536;1244;69003;-69
2022/02/06 10:07:10;;;;;;;10.70;8.00;;;;;;;7.05;41.82;97790.11;110511;1247;69846;-67
2022/02/06 10:10:10;;;;;;;9.40;7.40;;;;;;;7.34;41.54;97788.91;110391;1245;60519;-69
2022/02/06 10:12:44;;;;;;;9.60;6.90;;;;;;;7.78;40.27;97798.83;110345;1247;60482;-67
2022/02/06 10:15:16;;;;;;;8.90;7.30;;;;;;;6.38;42.25;97798.99;110555;1244;71766;-68
2022/02/06 10:17:47;;;;;;;8.90;6.50;;;;;;;5.95;43.63;97800.81;110606;1244;68378;-66
2022/02/06 10:20:16;;;;;;;8.70;6.40;;;;;;;5.97;43.43;97800.55;110558;1244;70185;-66
2022/02/06 10:22:57;;;;;;;7.60;5.50;;;;;;;5.94;43.85;97791.55;110485;1244;60509;-66
2022/02/06 10:25:26;;;;;;;7.90;6.50;;;;;;;5.75;44.50;97783.79;110189;1247;60492;-66
2022/02/06 10:30:49;;;;;;;10.90;8.00;;;;;;;4.85;47.25;97778.24;110439;1244;67789;-67
2022/02/06 10:33:22;;;;;;;12.50;8.40;;;;;;;4.39;48.96;97774.02;110507;1244;69164;-66
2022/02/06 10:35:55;;;;;;;10.70;8.60;;;;;;;3.58;51.10;97776.42;110532;1244;60496;-69
2022/02/06 10:38:26;;;;;;;13.50;9.30;;;;;;;3.36;52.24;97771.04;110378;1244;60499;-68
2022/02/06 10:41:24;;;;;;;13.80;9.80;;;;;;;3.27;52.58;97765.20;110537;1244;72500;-69
2022/02/06 10:44:05;;;;;;;13.60;11.20;;;;;;;3.17;53.75;97757.14;110258;1247;69260;-66
2022/02/06 10:46:58;;;;;;;15.00;10.70;;;;;;;3.45;52.82;97750.91;110248;1244;68282;-66
2022/02/06 10:49:27;;;;;;;13.00;9.50;;;;;;;3.85;51.72;97743.63;110567;1244;60550;-67
2022/02/06 10:51:59;;;;;;;10.60;7.30;;;;;;;4.26;50.63;97740.55;110549;1246;60953;-66
2022/02/06 10:54:28;;;;;;;11.00;7.30;;;;;;;4.63;49.66;97730.85;110442;1246;72744;-66
2022/02/06 10:57:15;;;;;;;8.50;7.10;;;;;;;5.31;47.46;97731.06;110195;1247;67385;-66
2022/02/06 10:59:47;;;;;;;9.70;7.30;;;;;;;5.89;45.72;97726.74;110221;1247;68229;-67
2022/02/06 11:02:27;;;;;;;11.40;9.50;;;;;;;6.78;44.12;97718.28;110073;1246;60481;-67
2022/02/06 11:05:16;;;;;;;8.70;6.60;;;;;;;6.17;44.36;97715.32;110462;1244;60497;-68
2022/02/06 11:07:53;;;;;;;14.90;10.40;;;;;;;5.91;44.83;97714.05;110302;1244;71621;-68
2022/02/06 11:10:24;;;;;;;11.60;7.40;;;;;;;5.49;46.05;97709.63;110444;1244;69035;-67
2022/02/06 11:13:02;;;;;;;11.20;8.50;;;;;;;5.33;46.35;97709.88;110609;1244;69390;-68
2022/02/06 11:15:36;;;;;;;9.20;5.60;;;;;;;5.54;45.43;97708.36;110539;1244;60667;-67
2022/02/06 11:18:17;;;;;;;9.50;7.80;;;;;;;5.44;44.96;97715.59;110544;1244;60503;-68
2022/02/06 11:21:06;;;;;;;8.20;5.80;;;;;;;5.93;44.23;97709.41;110488;1246;71479;-67
2022/02/06 11:23:40;;;;;;;7.80;5.50;;;;;;;6.13;43.16;97703.45;110498;1244;69005;-66
2022/02/06 11:26:12;;;;;;;10.80;6.40;;;;;;;6.31;42.38;97696.11;110429;1244;69305;-67
2022/02/06 11:28:41;;;;;;;6.90;5.30;;;;;;;6.82;41.68;97700.23;110429;1244;60509;-66
2022/02/06 11:31:10;;;;;;;7.20;4.70;;;;;;;7.60;39.98;97696.48;110445;1244;60541;-66
2022/02/06 11:33:39;;;;;;;6.40;4.60;;;;;;;7.77;38.82;97691.17;110507;1244;72951;-66
2022/02/06 11:36:19;;;;;;;8.50;5.80;;;;;;;8.70;37.43;97686.94;110383;1244;67049;-66
2022/02/06 11:45:22;;;;;;;6.10;4.40;;;;;;;9.33;36.10;97675.70;110486;1244;60431;-69
2022/02/06 11:47:59;;;;;;;8.50;4.70;;;;;;;7.95;38.25;97674.13;110421;1244;72593;-68
2022/02/06 11:50:31;;;;;;;5.50;4.30;;;;;;;7.54;39.28;97668.88;110220;1244;69297;-69
2022/02/06 11:53:06;;;;;;;4.30;3.70;;;;;;;7.54;39.55;97664.41;110393;1244;69190;-67
2022/02/06 11:55:45;;;;;;;5.40;3.50;;;;;;;7.47;39.02;97662.02;110532;1244;60544;-67
2022/02/06 11:58:26;;;;;;;7.80;5.20;;;;;;;7.56;38.99;97656.81;110263;1244;60478;-67
2022/02/06 12:01:07;;;;;;;5.00;3.80;;;;;;;6.66;39.93;97656.00;110440;1244;72247;-67
2022/02/06 12:04:03;;;;;;;5.30;3.60;;;;;;;6.49;40.30;97654.64;110536;1244;69004;-66
2022/02/06 12:06:47;;;;;;;5.70;3.80;;;;;;;5.86;41.09;97648.52;110541;1244;69514;-67
2022/02/06 12:09:24;;;;;;;4.50;3.30;;;;;;;5.93;41.44;97635.39;110494;1244;60537;-66
2022/02/06 12:12:05;;;;;;;4.40;3.70;;;;;;;5.88;41.45;97626.95;110508;1244;60438;-66
2022/02/06 12:14:44;;;;;;;6.30;3.80;;;;;;;5.43;42.41;97633.20;110370;1244;72106;-66
2022/02/06 12:20:08;;;;;;;6.80;3.90;;;;;;;5.33;42.11;97625.35;110434;1244;69814;-66
2022/02/06 12:22:42;;;;;;;4.90;3.90;;;;;;;5.16;42.69;97618.57;110528;1244;60608;-66
2022/02/06 12:25:38;;;;;;;5.70;3.70;;;;;;;5.05;42.96;97616.15;110438;1244;60498;-66
2022/02/06 12:28:18;;;;;;;4.30;3.80;;;;;;;5.11;43.63;97612.62;110517;1244;72149;-67
2022/02/06 12:30:47;;;;;;;;;;;;;;;4.98;44.14;97608.52;110550;1244;69049;-66
2022/02/06 12:33:23;;;;;;;5.50;3.30;;;;;;;5.02;44.28;97605.77;110450;1245;67471;-67
2022/02/06 12:38:44;;;;;;;6.30;4.90;;;;;;;4.94;44.59;97598.55;110486;1244;60466;-67
2022/02/06 12:41:28;;;;;;;5.20;3.90;;;;;;;4.97;45.04;97596.87;110488;1242;72022;-66
2022/02/06 12:44:05;;;;;;;4.80;3.70;;;;;;;4.96;44.74;97591.40;110504;1243;68400;-68
2022/02/06 12:46:34;;;;;;;5.80;4.50;;;;;;;5.34;43.91;97587.46;110464;1244;70265;-68
2022/02/06 12:49:04;;;;;;;6.00;3.50;;;;;;;5.46;43.84;97578.06;110427;1244;60458;-66
2022/02/06 12:51:36;;;;;;;29.10;19.00;;;;;;;5.57;42.90;97577.86;110400;1244;60924;-66
2022/02/06 12:54:11;;;;;;;22.00;11.50;;;;;;;5.89;42.36;97570.73;110400;1244;71788;-66
2022/02/06 12:56:43;;;;;;;6.70;4.00;;;;;;;6.48;41.10;97572.82;110415;1244;69206;-67
2022/02/06 12:59:18;;;;;;;62.90;30.30;;;;;;;7.27;38.82;97566.73;110594;1244;68455;-66
2022/02/06 13:01:48;;;;;;;11.90;6.90;;;;;;;8.31;37.08;97559.52;110474;1244;60540;-66
2022/02/06 13:04:26;;;;;;;;;;;;;;;9.09;35.76;97555.84;110501;1244;60393;-68
2022/02/06 13:07:00;;;;;;;11.30;10.20;;;;;;;9.81;34.00;97554.23;110509;1244;72967;-66
2022/02/06 13:09:36;;;;;;;4.40;3.20;;;;;;;10.43;32.63;97549.36;110482;1244;68383;-67
2022/02/06 13:38:40;;;;;;;6.40;5.20;;;;;;;9.53;34.24;97495.74;110231;1246;69883;-67
2022/02/06 13:41:16;;;;;;;6.70;5.80;;;;;;;8.34;35.55;97499.08;110056;1248;60491;-66
2022/02/06 13:43:48;;;;;;;9.70;7.20;;;;;;;8.11;36.32;97497.93;110547;1244;60439;-66
2022/02/06 13:46:24;;;;;;;9.40;6.80;;;;;;;7.61;36.63;97494.20;110393;1244;72980;-66
2022/02/06 13:48:54;;;;;;;10.10;8.70;;;;;;;7.35;37.67;97489.45;110483;1244;69208;-67
2022/02/06 13:51:31;;;;;;;14.50;11.40;;;;;;;6.62;38.90;97492.91;110567;1244;70060;-68
2022/02/06 13:54:06;;;;;;;13.10;9.40;;;;;;;6.19;39.86;97497.67;110482;1244;60545;-68
2022/02/06 13:56:45;;;;;;;11.20;9.20;;;;;;;6.01;39.97;97497.65;110510;1244;60527;-66
2022/02/06 13:59:19;;;;;;;12.90;9.90;;;;;;;5.94;40.44;97504.58;110300;1247;72937;-69
2022/02/06 14:01:55;;;;;;;12.40;8.80;;;;;;;5.47;41.26;97499.55;110509;1244;67634;-67
2022/02/06 14:04:30;;;;;;;12.80;9.50;;;;;;;5.23;42.03;97492.63;110404;1244;69468;-66
2022/02/06 14:07:20;;;;;;;11.80;8.70;;;;;;;5.11;42.81;97494.45;110331;1244;60497;-66
2022/02/06 14:10:10;;;;;;;13.90;9.90;;;;;;;5.12;42.84;97487.48;110220;1244;60502;-66
2022/02/06 14:12:49;;;;;;;;;;;;;;;4.96;43.58;97479.11;110304;1244;71196;-66
2022/02/06 14:15:27;;;;;;;11.50;9.00;;;;;;;4.93;44.13;97478.23;110471;1244;68658;-66